createdAt,value
2018-09-27T02:31:22.279Z,5.60
2018-09-27T02:36:25.701Z,4.53
2018-09-27T02:41:29.035Z,4.37
2018-09-27T03:49:50.038Z,2.93
2018-09-27T03:54:53.386Z,2.17
2018-09-27T03:59:57.495Z,5.03
2018-09-27T04:39:20.652Z,2.93
2018-09-27T04:44:25.618Z,2.47
2018-09-27T04:49:28.951Z,3.30
2018-09-27T04:54:32.298Z,4.23
2018-09-27T04:59:35.622Z,7.83
2018-09-27T05:04:38.971Z,3.10
2018-09-27T05:09:42.360Z,4.17
2018-09-27T05:14:45.646Z,4.47
2018-09-27T05:19:48.979Z,4.37
2018-09-27T05:24:52.298Z,2.97
2018-09-27T05:29:55.623Z,4.00
2018-09-27T05:34:58.943Z,3.40
2018-09-27T05:40:02.288Z,5.00
2018-09-27T05:45:05.617Z,5.60
2018-09-27T05:50:09.007Z,2.90
2018-09-27T05:55:12.342Z,9.67
2018-09-27T06:00:15.682Z,5.43
2018-09-27T06:05:19.020Z,7.27
2018-09-27T06:10:22.359Z,3.47
2018-09-27T06:15:25.699Z,6.90
2018-09-27T06:20:29.036Z,4.63
2018-09-27T06:25:32.354Z,4.30
2018-09-27T07:05:06.912Z,4.13
2018-09-27T07:10:10.236Z,4.17
2018-09-27T08:00:56.903Z,5.03
2018-09-27T08:06:00.235Z,5.00
2018-09-27T08:11:03.584Z,4.27
2018-09-27T09:02:08.572Z,3.83
2018-09-27T09:07:11.903Z,5.43
2018-09-27T09:12:15.353Z,6.50
2018-09-27T10:03:19.975Z,3.13
2018-09-27T10:08:23.330Z,3.53
2018-09-27T10:13:26.964Z,3.63
2018-09-27T11:04:32.353Z,1.10
2018-09-27T11:09:35.687Z,2.10
2018-09-27T11:14:39.030Z,3.77
2018-09-27T12:05:43.586Z,1.73
2018-09-27T12:10:46.914Z,1.60
2018-09-27T13:01:52.905Z,1.33
2018-09-27T13:06:56.043Z,1.53
2018-09-27T13:11:59.425Z,1.23
2018-09-27T14:03:04.704Z,1.30
2018-09-27T14:08:07.983Z,0.80
2018-09-27T14:13:11.311Z,0.90
2018-09-27T14:47:00.789Z,1.98
2018-09-27T14:52:04.118Z,0.93
2018-09-27T14:57:07.452Z,3.50
2018-09-27T15:30:58.143Z,2.40
2018-09-27T15:36:01.477Z,2.87
2018-09-27T15:41:04.812Z,2.22
2018-09-27T15:46:08.144Z,1.92
2018-09-27T15:51:11.489Z,2.47
2018-09-27T15:56:14.826Z,2.37
2018-09-27T16:01:18.162Z,2.35
2018-09-27T16:06:21.491Z,2.85
2018-09-27T16:11:24.852Z,2.85
2018-09-27T16:16:28.182Z,2.00
2018-09-27T16:21:31.519Z,1.98
2018-09-27T16:26:36.759Z,1.73
2018-09-27T16:31:40.101Z,2.67
2018-09-27T16:36:43.455Z,3.57
2018-09-27T16:41:46.788Z,2.93
2018-09-27T16:46:51.222Z,3.07
2018-09-27T16:51:54.654Z,3.73
2018-09-27T16:56:58.223Z,2.77
2018-09-27T17:02:02.311Z,4.57
2018-09-27T17:07:08.952Z,3.43
2018-09-27T17:12:12.559Z,4.00
2018-09-27T17:17:16.106Z,3.70
2018-09-27T17:22:20.024Z,3.47
2018-09-27T17:27:23.365Z,2.53
2018-09-27T17:32:26.910Z,4.20
2018-09-27T17:37:31.036Z,4.40
2018-09-27T17:42:34.558Z,3.83
2018-09-27T17:47:40.307Z,4.33
2018-09-27T17:52:44.028Z,4.83
2018-09-27T17:57:51.507Z,7.60
2018-09-27T18:02:54.835Z,5.60
2018-09-27T18:07:58.179Z,5.73
2018-09-27T18:13:02.587Z,7.53
2018-09-27T18:23:25.791Z,5.17
2018-09-27T18:28:32.842Z,7.93
2018-09-27T18:33:36.189Z,5.47
2018-09-27T18:38:39.555Z,4.07
2018-09-27T18:43:42.892Z,5.63
2018-09-27T18:48:46.230Z,4.90
2018-09-27T18:53:49.559Z,9.40
2018-09-27T18:58:52.900Z,4.10
2018-09-27T19:03:56.230Z,8.27
2018-09-27T19:08:59.559Z,6.37
2018-09-27T19:14:02.892Z,6.67
2018-09-27T19:19:06.221Z,6.13
2018-09-27T19:24:09.559Z,7.50
2018-09-27T19:29:12.894Z,12.00
2018-09-27T19:34:16.231Z,10.70
2018-09-27T19:39:19.646Z,9.30
2018-09-27T19:44:22.923Z,7.20
2018-09-27T19:49:26.259Z,9.87
2018-09-27T19:54:29.596Z,7.00
2018-09-27T19:59:32.925Z,6.43
2018-09-27T20:04:36.306Z,4.77
2018-09-27T20:09:39.651Z,6.83
2018-09-27T20:14:42.979Z,6.10
2018-09-27T20:19:46.309Z,6.63
2018-09-27T20:24:49.635Z,7.13
2018-09-27T20:29:52.959Z,6.17
2018-09-27T20:34:56.331Z,5.03
2018-09-27T20:39:59.638Z,5.10
2018-09-27T20:45:02.965Z,5.77
2018-09-27T20:50:06.312Z,9.07
2018-09-27T20:55:09.651Z,5.00
2018-09-27T21:00:12.983Z,3.43
2018-09-27T21:05:16.306Z,5.67
2018-09-27T21:10:19.645Z,4.30
2018-09-27T21:15:22.969Z,4.10
2018-09-27T21:20:26.302Z,5.57
2018-09-27T21:25:29.627Z,3.90
2018-09-27T21:30:32.970Z,5.20
2018-09-27T21:35:36.310Z,3.20
2018-09-27T21:40:39.650Z,4.83
2018-09-27T21:45:42.980Z,4.70
2018-09-27T21:50:46.338Z,4.60
2018-09-27T21:55:49.670Z,5.60
2018-09-27T22:00:53.003Z,3.60
2018-09-27T22:05:56.342Z,5.63
2018-09-27T22:10:59.692Z,7.07
2018-09-27T22:16:03.783Z,4.53
2018-09-27T22:21:07.115Z,4.80
2018-09-27T22:26:10.454Z,4.33
2018-09-27T22:31:13.794Z,6.43
2018-09-27T22:36:17.127Z,6.07
2018-09-27T22:41:20.456Z,2.73
2018-09-27T22:46:23.778Z,3.23
2018-09-27T22:51:27.113Z,4.30
2018-09-27T23:02:06.207Z,3.90
2018-09-27T23:07:09.539Z,3.50
2018-09-27T23:12:12.883Z,3.03
